sensor_id;sensor_type;location;lat;lon;timestamp;P1;durP1;ratioP1;P2;durP2;ratioP2
19312;SDS011;9791;50.820;4.406;2022-09-25T00:02:21;8.98;;;2.30;;
19312;SDS011;9791;50.820;4.406;2022-09-25T00:04:47;6.88;;;2.45;;
19312;SDS011;9791;50.820;4.406;2022-09-25T00:07:13;13.32;;;3.75;;
19312;SDS011;9791;50.820;4.406;2022-09-25T00:09:39;8.60;;;3.10;;
19312;SDS011;9791;50.820;4.406;2022-09-25T00:12:05;12.05;;;2.90;;
19312;SDS011;9791;50.820;4.406;2022-09-25T00:14:31;8.93;;;3.13;;
19312;SDS011;9791;50.820;4.406;2022-09-25T00:16:56;9.95;;;2.70;;
19312;SDS011;9791;50.820;4.406;2022-09-25T00:19:22;9.23;;;2.50;;
19312;SDS011;9791;50.820;4.406;2022-09-25T00:22:07;7.60;;;2.17;;
19312;SDS011;9791;50.820;4.406;2022-09-25T00:24:33;8.43;;;2.72;;
19312;SDS011;9791;50.820;4.406;2022-09-25T00:26:59;10.15;;;2.63;;
19312;SDS011;9791;50.820;4.406;2022-09-25T00:29:25;10.07;;;2.30;;
19312;SDS011;9791;50.820;4.406;2022-09-25T00:31:51;12.82;;;2.10;;
19312;SDS011;9791;50.820;4.406;2022-09-25T00:34:19;5.03;;;2.00;;
19312;SDS011;9791;50.820;4.406;2022-09-25T00:36:45;8.60;;;2.13;;
19312;SDS011;9791;50.820;4.406;2022-09-25T00:39:11;10.18;;;2.70;;
19312;SDS011;9791;50.820;4.406;2022-09-25T00:41:37;8.23;;;1.70;;
19312;SDS011;9791;50.820;4.406;2022-09-25T00:44:38;6.78;;;1.67;;
19312;SDS011;9791;50.820;4.406;2022-09-25T00:46:49;7.13;;;2.20;;
19312;SDS011;9791;50.820;4.406;2022-09-25T00:49:16;8.35;;;2.65;;
19312;SDS011;9791;50.820;4.406;2022-09-25T00:54:12;11.27;;;2.88;;
19312;SDS011;9791;50.820;4.406;2022-09-25T00:56:40;12.40;;;2.65;;
19312;SDS011;9791;50.820;4.406;2022-09-25T00:59:08;14.48;;;2.88;;
19312;SDS011;9791;50.820;4.406;2022-09-25T01:01:36;8.93;;;2.60;;
19312;SDS011;9791;50.820;4.406;2022-09-25T01:04:02;13.68;;;2.95;;
19312;SDS011;9791;50.820;4.406;2022-09-25T01:06:29;6.00;;;2.03;;
19312;SDS011;9791;50.820;4.406;2022-09-25T01:08:56;7.68;;;2.38;;
19312;SDS011;9791;50.820;4.406;2022-09-25T01:11:24;7.80;;;2.47;;
19312;SDS011;9791;50.820;4.406;2022-09-25T01:13:54;6.47;;;2.50;;
19312;SDS011;9791;50.820;4.406;2022-09-25T01:34:02;7.53;;;2.03;;
19312;SDS011;9791;50.820;4.406;2022-09-25T01:36:50;7.40;;;2.10;;
19312;SDS011;9791;50.820;4.406;2022-09-25T01:39:19;6.90;;;1.92;;
19312;SDS011;9791;50.820;4.406;2022-09-25T01:41:50;9.57;;;2.03;;
19312;SDS011;9791;50.820;4.406;2022-09-25T01:46:49;7.25;;;1.92;;
19312;SDS011;9791;50.820;4.406;2022-09-25T01:49:18;10.60;;;1.90;;
19312;SDS011;9791;50.820;4.406;2022-09-25T01:51:49;10.43;;;2.00;;
19312;SDS011;9791;50.820;4.406;2022-09-25T01:54:23;9.48;;;2.28;;
19312;SDS011;9791;50.820;4.406;2022-09-25T02:02:25;8.48;;;2.00;;
19312;SDS011;9791;50.820;4.406;2022-09-25T02:05:01;5.85;;;1.70;;
19312;SDS011;9791;50.820;4.406;2022-09-25T02:07:33;8.68;;;2.00;;
19312;SDS011;9791;50.820;4.406;2022-09-25T02:10:04;6.15;;;1.88;;
19312;SDS011;9791;50.820;4.406;2022-09-25T02:12:35;11.50;;;2.08;;
19312;SDS011;9791;50.820;4.406;2022-09-25T02:15:04;5.47;;;1.60;;
19312;SDS011;9791;50.820;4.406;2022-09-25T02:17:34;7.68;;;1.73;;
19312;SDS011;9791;50.820;4.406;2022-09-25T02:20:21;8.45;;;2.13;;
19312;SDS011;9791;50.820;4.406;2022-09-25T02:22:58;9.32;;;1.80;;
19312;SDS011;9791;50.820;4.406;2022-09-25T02:25:29;14.55;;;1.75;;
19312;SDS011;9791;50.820;4.406;2022-09-25T02:27:57;6.97;;;1.90;;
19312;SDS011;9791;50.820;4.406;2022-09-25T02:30:23;6.43;;;2.10;;
19312;SDS011;9791;50.820;4.406;2022-09-25T02:32:50;8.75;;;2.15;;
19312;SDS011;9791;50.820;4.406;2022-09-25T02:35:16;15.85;;;2.60;;
19312;SDS011;9791;50.820;4.406;2022-09-25T02:37:42;7.28;;;2.10;;
19312;SDS011;9791;50.820;4.406;2022-09-25T02:40:08;10.95;;;2.22;;
19312;SDS011;9791;50.820;4.406;2022-09-25T02:42:42;9.77;;;3.17;;
19312;SDS011;9791;50.820;4.406;2022-09-25T02:45:13;10.90;;;2.47;;
19312;SDS011;9791;50.820;4.406;2022-09-25T02:57:51;6.47;;;1.85;;
19312;SDS011;9791;50.820;4.406;2022-09-25T03:00:19;9.10;;;1.95;;
19312;SDS011;9791;50.820;4.406;2022-09-25T03:02:47;6.45;;;1.98;;
19312;SDS011;9791;50.820;4.406;2022-09-25T03:05:14;8.80;;;2.03;;
19312;SDS011;9791;50.820;4.406;2022-09-25T03:07:40;7.72;;;2.22;;
19312;SDS011;9791;50.820;4.406;2022-09-25T03:10:25;6.13;;;1.85;;
19312;SDS011;9791;50.820;4.406;2022-09-25T03:12:53;5.75;;;2.03;;
19312;SDS011;9791;50.820;4.406;2022-09-25T03:15:19;7.13;;;1.85;;
19312;SDS011;9791;50.820;4.406;2022-09-25T03:17:47;6.47;;;1.85;;
19312;SDS011;9791;50.820;4.406;2022-09-25T03:20:16;6.93;;;1.90;;
19312;SDS011;9791;50.820;4.406;2022-09-25T03:22:42;14.70;;;3.00;;
19312;SDS011;9791;50.820;4.406;2022-09-25T03:25:08;8.27;;;2.33;;
19312;SDS011;9791;50.820;4.406;2022-09-25T03:27:34;9.23;;;2.20;;
19312;SDS011;9791;50.820;4.406;2022-09-25T03:30:00;8.80;;;2.60;;
19312;SDS011;9791;50.820;4.406;2022-09-25T03:32:27;7.88;;;2.25;;
19312;SDS011;9791;50.820;4.406;2022-09-25T03:34:52;8.63;;;2.38;;
19312;SDS011;9791;50.820;4.406;2022-09-25T03:37:18;11.88;;;2.20;;
19312;SDS011;9791;50.820;4.406;2022-09-25T03:39:44;8.45;;;2.05;;
19312;SDS011;9791;50.820;4.406;2022-09-25T03:42:11;8.57;;;2.20;;
19312;SDS011;9791;50.820;4.406;2022-09-25T03:44:38;9.02;;;2.10;;
19312;SDS011;9791;50.820;4.406;2022-09-25T03:47:04;11.73;;;2.45;;
19312;SDS011;9791;50.820;4.406;2022-09-25T03:49:30;14.85;;;3.47;;
19312;SDS011;9791;50.820;4.406;2022-09-25T03:51:56;8.27;;;2.30;;
19312;SDS011;9791;50.820;4.406;2022-09-25T03:54:24;8.45;;;2.53;;
19312;SDS011;9791;50.820;4.406;2022-09-25T03:56:50;9.98;;;2.70;;
19312;SDS011;9791;50.820;4.406;2022-09-25T03:59:16;7.90;;;2.72;;
19312;SDS011;9791;50.820;4.406;2022-09-25T04:01:42;10.32;;;2.83;;
19312;SDS011;9791;50.820;4.406;2022-09-25T04:04:09;9.60;;;2.45;;
19312;SDS011;9791;50.820;4.406;2022-09-25T04:06:35;11.82;;;2.72;;
19312;SDS011;9791;50.820;4.406;2022-09-25T04:09:01;8.75;;;2.47;;
19312;SDS011;9791;50.820;4.406;2022-09-25T04:11:27;10.02;;;2.63;;
19312;SDS011;9791;50.820;4.406;2022-09-25T04:13:53;9.95;;;3.20;;
19312;SDS011;9791;50.820;4.406;2022-09-25T04:16:20;10.77;;;3.20;;
19312;SDS011;9791;50.820;4.406;2022-09-25T04:18:47;10.38;;;3.15;;
19312;SDS011;9791;50.820;4.406;2022-09-25T04:21:13;5.88;;;2.95;;
19312;SDS011;9791;50.820;4.406;2022-09-25T04:23:41;4.97;;;2.75;;
19312;SDS011;9791;50.820;4.406;2022-09-25T04:26:27;12.52;;;3.53;;
19312;SDS011;9791;50.820;4.406;2022-09-25T04:28:53;10.48;;;3.10;;
19312;SDS011;9791;50.820;4.406;2022-09-25T04:31:19;11.02;;;3.03;;
19312;SDS011;9791;50.820;4.406;2022-09-25T04:33:45;9.65;;;3.90;;
19312;SDS011;9791;50.820;4.406;2022-09-25T04:36:12;10.73;;;3.72;;
19312;SDS011;9791;50.820;4.406;2022-09-25T04:38:38;9.52;;;4.00;;
19312;SDS011;9791;50.820;4.406;2022-09-25T04:41:04;11.20;;;3.97;;
19312;SDS011;9791;50.820;4.406;2022-09-25T04:43:32;10.85;;;3.90;;
19312;SDS011;9791;50.820;4.406;2022-09-25T04:46:01;11.10;;;3.78;;
19312;SDS011;9791;50.820;4.406;2022-09-25T04:48:28;9.65;;;2.90;;
19312;SDS011;9791;50.820;4.406;2022-09-25T04:50:54;7.97;;;3.50;;
19312;SDS011;9791;50.820;4.406;2022-09-25T04:53:20;14.75;;;3.60;;
19312;SDS011;9791;50.820;4.406;2022-09-25T04:55:46;9.38;;;3.42;;
19312;SDS011;9791;50.820;4.406;2022-09-25T04:58:12;10.05;;;3.72;;
19312;SDS011;9791;50.820;4.406;2022-09-25T05:00:38;13.73;;;4.07;;
19312;SDS011;9791;50.820;4.406;2022-09-25T05:03:06;9.18;;;3.40;;
19312;SDS011;9791;50.820;4.406;2022-09-25T05:05:32;14.05;;;3.13;;
19312;SDS011;9791;50.820;4.406;2022-09-25T05:07:59;9.98;;;3.40;;
19312;SDS011;9791;50.820;4.406;2022-09-25T05:10:27;9.27;;;3.47;;
19312;SDS011;9791;50.820;4.406;2022-09-25T05:12:57;15.18;;;4.63;;
19312;SDS011;9791;50.820;4.406;2022-09-25T05:15:24;6.70;;;2.95;;
19312;SDS011;9791;50.820;4.406;2022-09-25T05:17:50;7.65;;;2.63;;
19312;SDS011;9791;50.820;4.406;2022-09-25T05:20:23;11.40;;;3.60;;
19312;SDS011;9791;50.820;4.406;2022-09-25T05:22:53;8.52;;;2.80;;
19312;SDS011;9791;50.820;4.406;2022-09-25T05:25:19;11.75;;;4.40;;
19312;SDS011;9791;50.820;4.406;2022-09-25T05:27:47;9.70;;;3.30;;
19312;SDS011;9791;50.820;4.406;2022-09-25T05:30:14;11.82;;;3.53;;
19312;SDS011;9791;50.820;4.406;2022-09-25T05:32:46;8.95;;;3.28;;
19312;SDS011;9791;50.820;4.406;2022-09-25T05:35:13;11.90;;;3.28;;
19312;SDS011;9791;50.820;4.406;2022-09-25T05:37:39;10.15;;;3.67;;
19312;SDS011;9791;50.820;4.406;2022-09-25T05:40:05;13.32;;;4.07;;
19312;SDS011;9791;50.820;4.406;2022-09-25T05:42:31;7.20;;;3.90;;
19312;SDS011;9791;50.820;4.406;2022-09-25T05:44:58;9.93;;;4.10;;
19312;SDS011;9791;50.820;4.406;2022-09-25T05:47:24;8.35;;;3.60;;
19312;SDS011;9791;50.820;4.406;2022-09-25T05:49:50;10.85;;;4.00;;
19312;SDS011;9791;50.820;4.406;2022-09-25T05:52:16;9.45;;;3.50;;
19312;SDS011;9791;50.820;4.406;2022-09-25T05:54:42;10.45;;;4.05;;
19312;SDS011;9791;50.820;4.406;2022-09-25T05:57:08;11.07;;;3.78;;
19312;SDS011;9791;50.820;4.406;2022-09-25T05:59:34;6.15;;;3.42;;
19312;SDS011;9791;50.820;4.406;2022-09-25T06:02:00;9.75;;;3.60;;
19312;SDS011;9791;50.820;4.406;2022-09-25T06:04:26;6.53;;;3.60;;
19312;SDS011;9791;50.820;4.406;2022-09-25T06:06:52;6.50;;;3.05;;
19312;SDS011;9791;50.820;4.406;2022-09-25T06:09:18;9.98;;;3.80;;
19312;SDS011;9791;50.820;4.406;2022-09-25T06:11:44;9.63;;;3.50;;
19312;SDS011;9791;50.820;4.406;2022-09-25T06:14:11;12.07;;;3.88;;
19312;SDS011;9791;50.820;4.406;2022-09-25T06:16:37;9.60;;;4.13;;
19312;SDS011;9791;50.820;4.406;2022-09-25T06:19:03;9.35;;;4.22;;
19312;SDS011;9791;50.820;4.406;2022-09-25T06:21:29;8.65;;;3.83;;
19312;SDS011;9791;50.820;4.406;2022-09-25T06:23:55;9.80;;;3.60;;
19312;SDS011;9791;50.820;4.406;2022-09-25T06:26:21;6.68;;;3.90;;
19312;SDS011;9791;50.820;4.406;2022-09-25T06:28:49;8.85;;;3.88;;
19312;SDS011;9791;50.820;4.406;2022-09-25T06:31:15;8.52;;;4.18;;
19312;SDS011;9791;50.820;4.406;2022-09-25T06:33:41;10.95;;;5.10;;
19312;SDS011;9791;50.820;4.406;2022-09-25T06:36:07;8.45;;;3.90;;
19312;SDS011;9791;50.820;4.406;2022-09-25T06:38:33;9.98;;;4.50;;
19312;SDS011;9791;50.820;4.406;2022-09-25T06:40:59;10.10;;;4.43;;
19312;SDS011;9791;50.820;4.406;2022-09-25T06:43:26;7.80;;;4.10;;
19312;SDS011;9791;50.820;4.406;2022-09-25T06:45:52;12.93;;;4.03;;
19312;SDS011;9791;50.820;4.406;2022-09-25T06:48:18;8.07;;;3.90;;
19312;SDS011;9791;50.820;4.406;2022-09-25T06:50:49;10.93;;;4.72;;
19312;SDS011;9791;50.820;4.406;2022-09-25T06:53:16;9.30;;;3.13;;
19312;SDS011;9791;50.820;4.406;2022-09-25T06:55:42;6.50;;;2.65;;
19312;SDS011;9791;50.820;4.406;2022-09-25T06:58:10;7.85;;;2.30;;
19312;SDS011;9791;50.820;4.406;2022-09-25T07:00:36;7.80;;;2.10;;
19312;SDS011;9791;50.820;4.406;2022-09-25T07:03:02;7.40;;;2.00;;
19312;SDS011;9791;50.820;4.406;2022-09-25T07:05:47;6.88;;;2.08;;
19312;SDS011;9791;50.820;4.406;2022-09-25T07:08:14;5.93;;;1.80;;
19312;SDS011;9791;50.820;4.406;2022-09-25T07:10:50;7.68;;;1.92;;
19312;SDS011;9791;50.820;4.406;2022-09-25T07:13:17;7.53;;;1.95;;
19312;SDS011;9791;50.820;4.406;2022-09-25T07:15:49;5.45;;;1.70;;
19312;SDS011;9791;50.820;4.406;2022-09-25T07:18:15;5.78;;;2.00;;
19312;SDS011;9791;50.820;4.406;2022-09-25T07:20:41;4.20;;;1.60;;
19312;SDS011;9791;50.820;4.406;2022-09-25T07:23:09;7.50;;;1.95;;
19312;SDS011;9791;50.820;4.406;2022-09-25T07:25:36;6.72;;;1.92;;
19312;SDS011;9791;50.820;4.406;2022-09-25T07:28:01;5.35;;;1.73;;
19312;SDS011;9791;50.820;4.406;2022-09-25T07:30:28;7.72;;;2.00;;
19312;SDS011;9791;50.820;4.406;2022-09-25T07:32:54;5.95;;;1.60;;
19312;SDS011;9791;50.820;4.406;2022-09-25T07:35:20;6.95;;;1.45;;
19312;SDS011;9791;50.820;4.406;2022-09-25T07:37:46;5.22;;;1.75;;
19312;SDS011;9791;50.820;4.406;2022-09-25T07:40:12;5.85;;;2.05;;
19312;SDS011;9791;50.820;4.406;2022-09-25T07:42:38;5.18;;;1.92;;
19312;SDS011;9791;50.820;4.406;2022-09-25T07:45:05;4.55;;;1.50;;
19312;SDS011;9791;50.820;4.406;2022-09-25T07:47:31;5.35;;;1.60;;
19312;SDS011;9791;50.820;4.406;2022-09-25T07:49:58;4.78;;;1.67;;
19312;SDS011;9791;50.820;4.406;2022-09-25T07:52:24;3.13;;;1.25;;
19312;SDS011;9791;50.820;4.406;2022-09-25T07:54:51;7.25;;;2.35;;
19312;SDS011;9791;50.820;4.406;2022-09-25T07:57:17;5.35;;;1.73;;
19312;SDS011;9791;50.820;4.406;2022-09-25T07:59:44;4.18;;;1.30;;
19312;SDS011;9791;50.820;4.406;2022-09-25T08:02:10;5.72;;;1.40;;
19312;SDS011;9791;50.820;4.406;2022-09-25T08:04:36;6.78;;;1.50;;
19312;SDS011;9791;50.820;4.406;2022-09-25T08:07:02;6.28;;;1.80;;
19312;SDS011;9791;50.820;4.406;2022-09-25T08:09:29;5.50;;;1.77;;
19312;SDS011;9791;50.820;4.406;2022-09-25T08:11:55;4.90;;;1.70;;
19312;SDS011;9791;50.820;4.406;2022-09-25T08:14:21;5.32;;;1.77;;
19312;SDS011;9791;50.820;4.406;2022-09-25T08:16:47;7.18;;;1.52;;
19312;SDS011;9791;50.820;4.406;2022-09-25T08:19:13;5.40;;;1.40;;
19312;SDS011;9791;50.820;4.406;2022-09-25T08:21:42;5.43;;;1.63;;
19312;SDS011;9791;50.820;4.406;2022-09-25T08:24:08;5.32;;;1.33;;
19312;SDS011;9791;50.820;4.406;2022-09-25T08:26:37;6.70;;;1.50;;
19312;SDS011;9791;50.820;4.406;2022-09-25T08:29:03;12.07;;;1.80;;
19312;SDS011;9791;50.820;4.406;2022-09-25T08:31:29;5.97;;;1.70;;
19312;SDS011;9791;50.820;4.406;2022-09-25T08:33:55;5.70;;;1.42;;
19312;SDS011;9791;50.820;4.406;2022-09-25T08:36:21;4.60;;;1.10;;
19312;SDS011;9791;50.820;4.406;2022-09-25T08:38:47;4.88;;;1.42;;
19312;SDS011;9791;50.820;4.406;2022-09-25T08:41:17;5.90;;;1.42;;
19312;SDS011;9791;50.820;4.406;2022-09-25T08:46:28;4.60;;;1.40;;
19312;SDS011;9791;50.820;4.406;2022-09-25T08:49:15;4.43;;;1.23;;
19312;SDS011;9791;50.820;4.406;2022-09-25T08:51:47;4.43;;;1.08;;
19312;SDS011;9791;50.820;4.406;2022-09-25T08:54:21;5.28;;;0.93;;
19312;SDS011;9791;50.820;4.406;2022-09-25T08:56:50;4.80;;;1.35;;
19312;SDS011;9791;50.820;4.406;2022-09-25T08:59:36;4.55;;;0.95;;
19312;SDS011;9791;50.820;4.406;2022-09-25T09:02:13;3.28;;;0.90;;
19312;SDS011;9791;50.820;4.406;2022-09-25T09:04:45;4.72;;;1.15;;
19312;SDS011;9791;50.820;4.406;2022-09-25T09:07:14;3.80;;;1.00;;
19312;SDS011;9791;50.820;4.406;2022-09-25T09:09:43;4.00;;;1.00;;
19312;SDS011;9791;50.820;4.406;2022-09-25T09:12:15;7.95;;;1.45;;
19312;SDS011;9791;50.820;4.406;2022-09-25T09:14:51;6.10;;;1.08;;
19312;SDS011;9791;50.820;4.406;2022-09-25T09:17:20;5.75;;;1.40;;
19312;SDS011;9791;50.820;4.406;2022-09-25T09:19:49;6.03;;;1.02;;
19312;SDS011;9791;50.820;4.406;2022-09-25T09:22:19;4.50;;;1.73;;
19312;SDS011;9791;50.820;4.406;2022-09-25T09:24:52;3.78;;;1.10;;
19312;SDS011;9791;50.820;4.406;2022-09-25T09:37:33;3.58;;;0.70;;
19312;SDS011;9791;50.820;4.406;2022-09-25T09:42:40;2.95;;;0.82;;
19312;SDS011;9791;50.820;4.406;2022-09-25T09:45:16;5.95;;;1.00;;
19312;SDS011;9791;50.820;4.406;2022-09-25T09:47:49;3.20;;;0.80;;
19312;SDS011;9791;50.820;4.406;2022-09-25T09:52:46;5.22;;;1.10;;
19312;SDS011;9791;50.820;4.406;2022-09-25T09:57:44;3.97;;;1.00;;
19312;SDS011;9791;50.820;4.406;2022-09-25T10:00:14;4.65;;;0.90;;
19312;SDS011;9791;50.820;4.406;2022-09-25T10:02:45;3.00;;;0.63;;
19312;SDS011;9791;50.820;4.406;2022-09-25T10:07:54;5.90;;;0.95;;
19312;SDS011;9791;50.820;4.406;2022-09-25T10:10:21;4.22;;;1.15;;
19312;SDS011;9791;50.820;4.406;2022-09-25T10:12:50;4.68;;;1.00;;
19312;SDS011;9791;50.820;4.406;2022-09-25T10:15:31;5.05;;;1.10;;
19312;SDS011;9791;50.820;4.406;2022-09-25T10:17:58;4.38;;;1.02;;
19312;SDS011;9791;50.820;4.406;2022-09-25T10:20:26;6.63;;;1.45;;
19312;SDS011;9791;50.820;4.406;2022-09-25T10:23:04;3.35;;;1.10;;
19312;SDS011;9791;50.820;4.406;2022-09-25T10:25:36;3.88;;;0.95;;
19312;SDS011;9791;50.820;4.406;2022-09-25T10:28:24;5.07;;;1.13;;
19312;SDS011;9791;50.820;4.406;2022-09-25T10:30:51;3.00;;;0.90;;
19312;SDS011;9791;50.820;4.406;2022-09-25T10:33:24;3.53;;;0.82;;
19312;SDS011;9791;50.820;4.406;2022-09-25T10:35:50;4.53;;;1.08;;
19312;SDS011;9791;50.820;4.406;2022-09-25T10:38:29;2.33;;;0.75;;
19312;SDS011;9791;50.820;4.406;2022-09-25T10:41:18;4.57;;;1.02;;
19312;SDS011;9791;50.820;4.406;2022-09-25T10:43:59;2.72;;;0.55;;
19312;SDS011;9791;50.820;4.406;2022-09-25T10:46:29;3.15;;;0.80;;
19312;SDS011;9791;50.820;4.406;2022-09-25T10:49:24;2.40;;;0.75;;
19312;SDS011;9791;50.820;4.406;2022-09-25T10:52:10;4.72;;;1.25;;
19312;SDS011;9791;50.820;4.406;2022-09-25T10:54:36;3.40;;;1.00;;
19312;SDS011;9791;50.820;4.406;2022-09-25T10:59:47;6.80;;;1.30;;
19312;SDS011;9791;50.820;4.406;2022-09-25T11:04:59;5.28;;;1.00;;
19312;SDS011;9791;50.820;4.406;2022-09-25T11:07:25;4.38;;;1.30;;
19312;SDS011;9791;50.820;4.406;2022-09-25T11:09:52;4.32;;;1.00;;
19312;SDS011;9791;50.820;4.406;2022-09-25T11:12:20;4.63;;;1.00;;
19312;SDS011;9791;50.820;4.406;2022-09-25T11:14:53;8.18;;;1.65;;
19312;SDS011;9791;50.820;4.406;2022-09-25T11:17:41;3.65;;;0.98;;
19312;SDS011;9791;50.820;4.406;2022-09-25T11:23:01;5.32;;;1.40;;
19312;SDS011;9791;50.820;4.406;2022-09-25T11:28:09;5.03;;;1.48;;
19312;SDS011;9791;50.820;4.406;2022-09-25T11:30:41;4.53;;;1.20;;
19312;SDS011;9791;50.820;4.406;2022-09-25T11:33:31;4.85;;;1.17;;
19312;SDS011;9791;50.820;4.406;2022-09-25T11:36:07;3.92;;;1.17;;
19312;SDS011;9791;50.820;4.406;2022-09-25T11:38:52;4.20;;;1.02;;
19312;SDS011;9791;50.820;4.406;2022-09-25T11:54:27;3.70;;;1.02;;
19312;SDS011;9791;50.820;4.406;2022-09-25T11:57:05;4.35;;;1.00;;
19312;SDS011;9791;50.820;4.406;2022-09-25T11:59:40;5.07;;;1.65;;
19312;SDS011;9791;50.820;4.406;2022-09-25T12:04:54;5.50;;;1.42;;
19312;SDS011;9791;50.820;4.406;2022-09-25T12:12:57;4.60;;;1.42;;
19312;SDS011;9791;50.820;4.406;2022-09-25T12:18:16;4.22;;;0.98;;
19312;SDS011;9791;50.820;4.406;2022-09-25T12:25:47;5.05;;;1.17;;
19312;SDS011;9791;50.820;4.406;2022-09-25T12:36:04;3.72;;;1.30;;
19312;SDS011;9791;50.820;4.406;2022-09-25T12:38:46;6.93;;;1.10;;
19312;SDS011;9791;50.820;4.406;2022-09-25T12:43:53;2.10;;;0.93;;
19312;SDS011;9791;50.820;4.406;2022-09-25T12:51:16;6.68;;;0.98;;
19312;SDS011;9791;50.820;4.406;2022-09-25T12:53:49;7.03;;;1.10;;
19312;SDS011;9791;50.820;4.406;2022-09-25T12:56:23;5.25;;;1.10;;
19312;SDS011;9791;50.820;4.406;2022-09-25T12:59:04;3.45;;;0.90;;
19312;SDS011;9791;50.820;4.406;2022-09-25T13:01:37;3.80;;;1.05;;
19312;SDS011;9791;50.820;4.406;2022-09-25T13:04:12;4.97;;;1.15;;
19312;SDS011;9791;50.820;4.406;2022-09-25T13:06:54;2.97;;;0.88;;
19312;SDS011;9791;50.820;4.406;2022-09-25T13:09:34;1.95;;;0.85;;
19312;SDS011;9791;50.820;4.406;2022-09-25T13:12:02;2.75;;;1.00;;
19312;SDS011;9791;50.820;4.406;2022-09-25T13:14:31;4.43;;;0.93;;
19312;SDS011;9791;50.820;4.406;2022-09-25T13:16:58;3.53;;;1.00;;
19312;SDS011;9791;50.820;4.406;2022-09-25T13:19:29;4.57;;;1.05;;
19312;SDS011;9791;50.820;4.406;2022-09-25T13:22:12;4.18;;;1.42;;
19312;SDS011;9791;50.820;4.406;2022-09-25T13:27:30;4.25;;;1.05;;
19312;SDS011;9791;50.820;4.406;2022-09-25T13:30:02;3.53;;;0.88;;
19312;SDS011;9791;50.820;4.406;2022-09-25T13:32:30;4.70;;;1.02;;
19312;SDS011;9791;50.820;4.406;2022-09-25T13:35:02;3.47;;;0.80;;
19312;SDS011;9791;50.820;4.406;2022-09-25T13:37:33;3.13;;;1.02;;
19312;SDS011;9791;50.820;4.406;2022-09-25T13:40:00;3.72;;;1.33;;
19312;SDS011;9791;50.820;4.406;2022-09-25T13:42:50;4.03;;;1.13;;
19312;SDS011;9791;50.820;4.406;2022-09-25T13:45:32;2.58;;;0.80;;
19312;SDS011;9791;50.820;4.406;2022-09-25T13:50:28;3.45;;;1.17;;
19312;SDS011;9791;50.820;4.406;2022-09-25T13:55:43;3.10;;;1.00;;
19312;SDS011;9791;50.820;4.406;2022-09-25T13:58:29;3.00;;;1.08;;
19312;SDS011;9791;50.820;4.406;2022-09-25T14:00:58;2.00;;;0.90;;
19312;SDS011;9791;50.820;4.406;2022-09-25T14:05:58;2.47;;;1.00;;
19312;SDS011;9791;50.820;4.406;2022-09-25T14:08:24;3.47;;;1.20;;
19312;SDS011;9791;50.820;4.406;2022-09-25T14:10:53;3.13;;;1.02;;
19312;SDS011;9791;50.820;4.406;2022-09-25T14:13:21;4.65;;;1.63;;
19312;SDS011;9791;50.820;4.406;2022-09-25T14:15:49;3.20;;;1.10;;
19312;SDS011;9791;50.820;4.406;2022-09-25T14:18:18;3.63;;;1.23;;
19312;SDS011;9791;50.820;4.406;2022-09-25T14:20:45;6.10;;;1.20;;
19312;SDS011;9791;50.820;4.406;2022-09-25T14:23:22;2.00;;;0.73;;
19312;SDS011;9791;50.820;4.406;2022-09-25T14:25:59;1.80;;;0.80;;
19312;SDS011;9791;50.820;4.406;2022-09-25T14:28:30;3.17;;;0.90;;
19312;SDS011;9791;50.820;4.406;2022-09-25T14:44:22;3.58;;;1.10;;
19312;SDS011;9791;50.820;4.406;2022-09-25T14:46:26;3.00;;;1.00;;
19312;SDS011;9791;50.820;4.406;2022-09-25T14:48:55;3.25;;;1.00;;
19312;SDS011;9791;50.820;4.406;2022-09-25T14:54:08;7.13;;;2.45;;
19312;SDS011;9791;50.820;4.406;2022-09-25T14:56:36;4.85;;;1.48;;
19312;SDS011;9791;50.820;4.406;2022-09-25T14:59:06;4.65;;;0.90;;
19312;SDS011;9791;50.820;4.406;2022-09-25T15:01:34;3.25;;;1.08;;
19312;SDS011;9791;50.820;4.406;2022-09-25T15:04:02;7.13;;;1.83;;
19312;SDS011;9791;50.820;4.406;2022-09-25T15:06:30;4.45;;;1.58;;
19312;SDS011;9791;50.820;4.406;2022-09-25T15:08:56;4.22;;;1.00;;
19312;SDS011;9791;50.820;4.406;2022-09-25T15:11:23;4.38;;;1.17;;
19312;SDS011;9791;50.820;4.406;2022-09-25T15:13:51;4.88;;;1.38;;
19312;SDS011;9791;50.820;4.406;2022-09-25T15:16:18;4.35;;;1.30;;
19312;SDS011;9791;50.820;4.406;2022-09-25T15:19:18;4.03;;;1.20;;
19312;SDS011;9791;50.820;4.406;2022-09-25T15:21:45;3.85;;;1.02;;
19312;SDS011;9791;50.820;4.406;2022-09-25T15:24:13;2.90;;;0.98;;
19312;SDS011;9791;50.820;4.406;2022-09-25T15:26:43;2.28;;;0.85;;
19312;SDS011;9791;50.820;4.406;2022-09-25T15:29:12;3.58;;;1.02;;
19312;SDS011;9791;50.820;4.406;2022-09-25T15:31:42;3.90;;;1.00;;
19312;SDS011;9791;50.820;4.406;2022-09-25T15:34:11;3.40;;;0.82;;
19312;SDS011;9791;50.820;4.406;2022-09-25T15:36:37;3.35;;;1.15;;
19312;SDS011;9791;50.820;4.406;2022-09-25T15:39:13;4.07;;;0.90;;
19312;SDS011;9791;50.820;4.406;2022-09-25T15:41:42;2.10;;;1.00;;
19312;SDS011;9791;50.820;4.406;2022-09-25T15:44:22;3.13;;;0.90;;
19312;SDS011;9791;50.820;4.406;2022-09-25T15:46:55;2.25;;;0.93;;
19312;SDS011;9791;50.820;4.406;2022-09-25T15:51:56;1.73;;;0.80;;
19312;SDS011;9791;50.820;4.406;2022-09-25T15:56:56;2.00;;;0.70;;
19312;SDS011;9791;50.820;4.406;2022-09-25T15:59:24;4.35;;;1.10;;
19312;SDS011;9791;50.820;4.406;2022-09-25T16:01:51;4.20;;;1.08;;
19312;SDS011;9791;50.820;4.406;2022-09-25T16:04:36;2.70;;;1.05;;
19312;SDS011;9791;50.820;4.406;2022-09-25T16:09:53;3.80;;;1.20;;
19312;SDS011;9791;50.820;4.406;2022-09-25T16:14:50;4.65;;;1.40;;
19312;SDS011;9791;50.820;4.406;2022-09-25T16:17:24;5.18;;;1.20;;
19312;SDS011;9791;50.820;4.406;2022-09-25T16:19:56;4.10;;;1.10;;
19312;SDS011;9791;50.820;4.406;2022-09-25T16:22:22;4.80;;;1.15;;
19312;SDS011;9791;50.820;4.406;2022-09-25T16:24:50;4.78;;;1.45;;
19312;SDS011;9791;50.820;4.406;2022-09-25T16:27:22;4.18;;;1.27;;
19312;SDS011;9791;50.820;4.406;2022-09-25T16:29:48;3.22;;;1.20;;
19312;SDS011;9791;50.820;4.406;2022-09-25T16:32:15;5.22;;;1.95;;
19312;SDS011;9791;50.820;4.406;2022-09-25T16:34:50;5.07;;;1.30;;
19312;SDS011;9791;50.820;4.406;2022-09-25T16:37:19;4.43;;;1.30;;
19312;SDS011;9791;50.820;4.406;2022-09-25T16:39:45;2.78;;;1.20;;
19312;SDS011;9791;50.820;4.406;2022-09-25T16:42:32;5.95;;;1.45;;
19312;SDS011;9791;50.820;4.406;2022-09-25T16:45:15;5.55;;;1.67;;
19312;SDS011;9791;50.820;4.406;2022-09-25T16:47:42;7.07;;;2.05;;
19312;SDS011;9791;50.820;4.406;2022-09-25T16:50:10;3.80;;;1.35;;
19312;SDS011;9791;50.820;4.406;2022-09-25T16:52:37;3.85;;;1.50;;
19312;SDS011;9791;50.820;4.406;2022-09-25T16:55:13;3.88;;;1.52;;
19312;SDS011;9791;50.820;4.406;2022-09-25T16:57:39;5.22;;;1.30;;
19312;SDS011;9791;50.820;4.406;2022-09-25T17:00:06;5.03;;;1.50;;
19312;SDS011;9791;50.820;4.406;2022-09-25T17:02:38;4.50;;;1.55;;
19312;SDS011;9791;50.820;4.406;2022-09-25T17:05:27;3.90;;;1.35;;
19312;SDS011;9791;50.820;4.406;2022-09-25T17:07:56;6.90;;;2.20;;
19312;SDS011;9791;50.820;4.406;2022-09-25T17:10:24;3.25;;;1.35;;
19312;SDS011;9791;50.820;4.406;2022-09-25T17:12:52;4.28;;;1.63;;
19312;SDS011;9791;50.820;4.406;2022-09-25T17:15:27;5.38;;;1.50;;
19312;SDS011;9791;50.820;4.406;2022-09-25T17:17:56;4.05;;;1.60;;
19312;SDS011;9791;50.820;4.406;2022-09-25T17:20:25;4.15;;;1.60;;
19312;SDS011;9791;50.820;4.406;2022-09-25T17:22:52;4.35;;;1.85;;
19312;SDS011;9791;50.820;4.406;2022-09-25T17:28:22;5.60;;;2.22;;
19312;SDS011;9791;50.820;4.406;2022-09-25T17:30:48;6.03;;;2.00;;
19312;SDS011;9791;50.820;4.406;2022-09-25T17:33:15;4.43;;;1.48;;
19312;SDS011;9791;50.820;4.406;2022-09-25T17:38:07;4.03;;;1.67;;
19312;SDS011;9791;50.820;4.406;2022-09-25T17:40:36;4.13;;;1.40;;
19312;SDS011;9791;50.820;4.406;2022-09-25T17:43:02;3.80;;;1.50;;
19312;SDS011;9791;50.820;4.406;2022-09-25T17:45:30;4.90;;;2.00;;
19312;SDS011;9791;50.820;4.406;2022-09-25T17:47:58;6.20;;;2.00;;
19312;SDS011;9791;50.820;4.406;2022-09-25T17:50:25;9.88;;;2.55;;
19312;SDS011;9791;50.820;4.406;2022-09-25T17:52:51;8.93;;;1.92;;
19312;SDS011;9791;50.820;4.406;2022-09-25T17:55:18;5.47;;;1.83;;